AXB8102 VOBL-VOPB
Flight info
| Callsign | AXB8102 |
|---|---|
| Flight time | 2h 10m |
| Altitude | 37000 |
| Route | TULNA W116 MMV P761 LEGIN L510 NIMOV |
| Aircraft | B38M/M-SDE1FGHILORVWXY/HB1 |
Departure
| Time | 2026-05-06 10:54 |
|---|---|
| Airport | Kempegowda International Airport Bengaluru (VOBL) |
Arrival
| Time | 2026-05-06 13:04 |
|---|---|
| Airport | Veer Savarkar International Airport / INS Utkrosh (VOPB) |
| Time | Latitude | Longitude | Altitude | Speed | Heading |
|---|---|---|---|---|---|
| 2026-05-06 10:33 | 13.20175 | 77.70797 | 3014 ft | 0 kts | 180° |
| 2026-05-06 10:43 | 13.20181 | 77.70797 | 3014 ft | 1 kts | 180° |
| 2026-05-06 10:43 | 13.20190 | 77.70797 | 3014 ft | 1 kts | 180° |
| 2026-05-06 10:43 | 13.20199 | 77.70798 | 3014 ft | 2 kts | 180° |
| 2026-05-06 10:44 | 13.20223 | 77.70798 | 3020 ft | 2 kts | 180° |
| 2026-05-06 10:44 | 13.20235 | 77.70798 | 3018 ft | 2 kts | 193° |
| 2026-05-06 10:44 | 13.20244 | 77.70805 | 3018 ft | 2 kts | 263° |
| 2026-05-06 10:44 | 13.20244 | 77.70817 | 3017 ft | 2 kts | 270° |
| 2026-05-06 10:45 | 13.20244 | 77.70829 | 3018 ft | 2 kts | 270° |
| 2026-05-06 10:45 | 13.20244 | 77.70831 | 3017 ft | 0 kts | 270° |
| 2026-05-06 10:48 | 13.20244 | 77.70813 | 3018 ft | 6 kts | 269° |
| 2026-05-06 10:48 | 13.20244 | 77.70735 | 3014 ft | 14 kts | 270° |
| 2026-05-06 10:48 | 13.20245 | 77.70630 | 3014 ft | 15 kts | 270° |
| 2026-05-06 10:48 | 13.20245 | 77.70515 | 3014 ft | 16 kts | 270° |
| 2026-05-06 10:49 | 13.20264 | 77.70401 | 3014 ft | 16 kts | 322° |
| 2026-05-06 10:49 | 13.20377 | 77.70392 | 3014 ft | 17 kts | 0° |
| 2026-05-06 10:49 | 13.20504 | 77.70392 | 3014 ft | 16 kts | 353° |
| 2026-05-06 10:49 | 13.20534 | 77.70335 | 3014 ft | 9 kts | 269° |
| 2026-05-06 10:50 | 13.20534 | 77.70260 | 3014 ft | 12 kts | 270° |
| 2026-05-06 10:50 | 13.20535 | 77.70150 | 3014 ft | 19 kts | 270° |
| 2026-05-06 10:50 | 13.20536 | 77.69989 | 3014 ft | 26 kts | 270° |
| 2026-05-06 10:50 | 13.20538 | 77.69776 | 3014 ft | 33 kts | 270° |
| 2026-05-06 10:51 | 13.20540 | 77.69594 | 3014 ft | 9 kts | 270° |
| 2026-05-06 10:51 | 13.20540 | 77.69506 | 3013 ft | 17 kts | 270° |
| 2026-05-06 10:51 | 13.20542 | 77.69361 | 3013 ft | 24 kts | 270° |
| 2026-05-06 10:51 | 13.20543 | 77.69163 | 3013 ft | 30 kts | 270° |
| 2026-05-06 10:52 | 13.20545 | 77.68925 | 3013 ft | 37 kts | 270° |
| 2026-05-06 10:52 | 13.20547 | 77.68701 | 3014 ft | 28 kts | 270° |
| 2026-05-06 10:52 | 13.20608 | 77.68617 | 3014 ft | 14 kts | 0° |
| 2026-05-06 10:52 | 13.20705 | 77.68622 | 3014 ft | 14 kts | 24° |
| 2026-05-06 10:53 | 13.20720 | 77.68653 | 3013 ft | 0 kts | 90° |
| 2026-05-06 10:53 | 13.20720 | 77.68661 | 3013 ft | 10 kts | 90° |
| 2026-05-06 10:53 | 13.20717 | 77.69021 | 3014 ft | 89 kts | 90° |
| 2026-05-06 10:53 | 13.20711 | 77.69906 | 3014 ft | 156 kts | 91° |
| 2026-05-06 10:54 | 13.20693 | 77.71122 | 3417 ft | 181 kts | 93° |
| 2026-05-06 10:54 | 13.20693 | 77.72406 | 4309 ft | 180 kts | 85° |
| 2026-05-06 10:54 | 13.21086 | 77.73650 | 4961 ft | 196 kts | 60° |
| 2026-05-06 10:54 | 13.22000 | 77.74777 | 4996 ft | 215 kts | 47° |
| 2026-05-06 10:55 | 13.22982 | 77.76000 | 5040 ft | 231 kts | 59° |
| 2026-05-06 10:55 | 13.23799 | 77.77486 | 5059 ft | 249 kts | 62° |
| 2026-05-06 10:55 | 13.24603 | 77.79073 | 5930 ft | 251 kts | 62° |
| 2026-05-06 10:55 | 13.25414 | 77.80713 | 6699 ft | 263 kts | 62° |
| 2026-05-06 10:56 | 13.26279 | 77.82394 | 7585 ft | 267 kts | 61° |
| 2026-05-06 10:56 | 13.27037 | 77.84154 | 8437 ft | 277 kts | 75° |
| 2026-05-06 10:56 | 13.27158 | 77.86148 | 9328 ft | 283 kts | 91° |
| 2026-05-06 10:56 | 13.27047 | 77.88163 | 10310 ft | 283 kts | 91° |
| 2026-05-06 10:57 | 13.26950 | 77.90157 | 11200 ft | 284 kts | 91° |
| 2026-05-06 10:57 | 13.26850 | 77.92208 | 11924 ft | 293 kts | 90° |
| 2026-05-06 10:57 | 13.26798 | 77.94353 | 12499 ft | 306 kts | 90° |
| 2026-05-06 10:57 | 13.26761 | 77.96556 | 13255 ft | 311 kts | 90° |
| 2026-05-06 10:58 | 13.26730 | 77.98797 | 14033 ft | 315 kts | 90° |
| 2026-05-06 10:58 | 13.26703 | 78.01071 | 14659 ft | 322 kts | 90° |
| 2026-05-06 10:58 | 13.26669 | 78.03373 | 15289 ft | 329 kts | 93° |
| 2026-05-06 10:58 | 13.26234 | 78.05739 | 15602 ft | 347 kts | 109° |
| 2026-05-06 10:59 | 13.25477 | 78.08147 | 15946 ft | 361 kts | 107° |
| 2026-05-06 10:59 | 13.24747 | 78.10643 | 16506 ft | 366 kts | 107° |
| 2026-05-06 10:59 | 13.24024 | 78.13166 | 17147 ft | 370 kts | 107° |
| 2026-05-06 10:59 | 13.23298 | 78.15731 | 17712 ft | 376 kts | 107° |
| 2026-05-06 11:00 | 13.22569 | 78.18323 | 18262 ft | 380 kts | 107° |
| 2026-05-06 11:00 | 13.21836 | 78.20938 | 18780 ft | 384 kts | 107° |
| 2026-05-06 11:00 | 13.21104 | 78.23549 | 19300 ft | 386 kts | 107° |
| 2026-05-06 11:00 | 13.20360 | 78.26204 | 19829 ft | 388 kts | 107° |
| 2026-05-06 11:01 | 13.19612 | 78.28871 | 20327 ft | 391 kts | 107° |
| 2026-05-06 11:01 | 13.18856 | 78.31564 | 20828 ft | 393 kts | 107° |
| 2026-05-06 11:01 | 13.18096 | 78.34271 | 21321 ft | 396 kts | 107° |
| 2026-05-06 11:01 | 13.17332 | 78.36994 | 21806 ft | 398 kts | 107° |
| 2026-05-06 11:02 | 13.16561 | 78.39738 | 22267 ft | 401 kts | 107° |
| 2026-05-06 11:02 | 13.15785 | 78.42499 | 22740 ft | 404 kts | 107° |
| 2026-05-06 11:02 | 13.15002 | 78.45281 | 23203 ft | 406 kts | 107° |
| 2026-05-06 11:02 | 13.14219 | 78.48065 | 23614 ft | 409 kts | 107° |
| 2026-05-06 11:03 | 13.13437 | 78.50845 | 24001 ft | 411 kts | 107° |
| 2026-05-06 11:03 | 13.12642 | 78.53669 | 24387 ft | 413 kts | 107° |
| 2026-05-06 11:03 | 13.11842 | 78.56510 | 24774 ft | 414 kts | 107° |
| 2026-05-06 11:03 | 13.11039 | 78.59357 | 25145 ft | 417 kts | 107° |
| 2026-05-06 11:04 | 13.10233 | 78.62214 | 25519 ft | 419 kts | 107° |
| 2026-05-06 11:04 | 13.09422 | 78.65091 | 25877 ft | 421 kts | 107° |
| 2026-05-06 11:04 | 13.08603 | 78.67992 | 26243 ft | 423 kts | 107° |
| 2026-05-06 11:04 | 13.07784 | 78.70889 | 26574 ft | 426 kts | 107° |
| 2026-05-06 11:05 | 13.06958 | 78.73815 | 26915 ft | 428 kts | 107° |
| 2026-05-06 11:05 | 13.06127 | 78.76756 | 27300 ft | 429 kts | 107° |
| 2026-05-06 11:05 | 13.05293 | 78.79703 | 27616 ft | 432 kts | 107° |
| 2026-05-06 11:05 | 13.04454 | 78.82672 | 27958 ft | 435 kts | 107° |
| 2026-05-06 11:06 | 13.03606 | 78.85666 | 28325 ft | 436 kts | 107° |
| 2026-05-06 11:06 | 13.02758 | 78.88662 | 28636 ft | 439 kts | 107° |
| 2026-05-06 11:06 | 13.01916 | 78.91634 | 28939 ft | 441 kts | 107° |
| 2026-05-06 11:06 | 13.01057 | 78.94665 | 29294 ft | 442 kts | 107° |
| 2026-05-06 11:07 | 13.00199 | 78.97690 | 29605 ft | 445 kts | 107° |
| 2026-05-06 11:07 | 12.99332 | 79.00747 | 29864 ft | 448 kts | 107° |
| 2026-05-06 11:07 | 12.98459 | 79.03820 | 30167 ft | 448 kts | 107° |
| 2026-05-06 11:07 | 12.97586 | 79.06891 | 30421 ft | 450 kts | 107° |
| 2026-05-06 11:08 | 12.96963 | 79.10045 | 30638 ft | 454 kts | 93° |
| 2026-05-06 11:08 | 12.96983 | 79.13277 | 30937 ft | 454 kts | 90° |
| 2026-05-06 11:08 | 12.97009 | 79.16531 | 31133 ft | 458 kts | 90° |
| 2026-05-06 11:08 | 12.97052 | 79.19795 | 31396 ft | 459 kts | 90° |
| 2026-05-06 11:09 | 12.97109 | 79.23070 | 31682 ft | 460 kts | 90° |
| 2026-05-06 11:09 | 12.97171 | 79.26354 | 31900 ft | 462 kts | 90° |
| 2026-05-06 11:09 | 12.97235 | 79.29657 | 32151 ft | 463 kts | 90° |
| 2026-05-06 11:09 | 12.97299 | 79.32965 | 32408 ft | 465 kts | 90° |
| 2026-05-06 11:10 | 12.97363 | 79.36244 | 32641 ft | 466 kts | 90° |
| 2026-05-06 11:10 | 12.97426 | 79.39568 | 32902 ft | 467 kts | 90° |
| 2026-05-06 11:10 | 12.97490 | 79.42907 | 33101 ft | 469 kts | 90° |
| 2026-05-06 11:10 | 12.97554 | 79.46255 | 33368 ft | 470 kts | 90° |
| 2026-05-06 11:11 | 12.97616 | 79.49609 | 33584 ft | 472 kts | 90° |
| 2026-05-06 11:11 | 12.97679 | 79.52976 | 33818 ft | 472 kts | 90° |
| 2026-05-06 11:11 | 12.97740 | 79.56346 | 34083 ft | 473 kts | 90° |
| 2026-05-06 11:11 | 12.97803 | 79.59710 | 34350 ft | 472 kts | 90° |
| 2026-05-06 11:12 | 12.97864 | 79.63075 | 34655 ft | 471 kts | 90° |
| 2026-05-06 11:12 | 12.97925 | 79.66422 | 34999 ft | 469 kts | 90° |
| 2026-05-06 11:12 | 12.97985 | 79.69760 | 35294 ft | 467 kts | 90° |
| 2026-05-06 11:12 | 12.98044 | 79.73072 | 35573 ft | 466 kts | 90° |
| 2026-05-06 11:13 | 12.98103 | 79.76398 | 35848 ft | 465 kts | 90° |
| 2026-05-06 11:13 | 12.98161 | 79.79709 | 36103 ft | 464 kts | 91° |
| 2026-05-06 11:13 | 12.98218 | 79.82966 | 36361 ft | 463 kts | 90° |
| 2026-05-06 11:13 | 12.98275 | 79.86269 | 36605 ft | 462 kts | 90° |
| 2026-05-06 11:14 | 12.98332 | 79.89561 | 36779 ft | 462 kts | 90° |
| 2026-05-06 11:14 | 12.98443 | 79.96129 | 36774 ft | 458 kts | 90° |
| 2026-05-06 11:15 | 12.98553 | 80.02617 | 36762 ft | 458 kts | 90° |
| 2026-05-06 11:15 | 12.98661 | 80.09161 | 36764 ft | 458 kts | 90° |
| 2026-05-06 11:16 | 12.98705 | 80.15699 | 36768 ft | 457 kts | 96° |
| 2026-05-06 11:16 | 12.98158 | 80.22196 | 36774 ft | 457 kts | 96° |
| 2026-05-06 11:17 | 12.97576 | 80.28681 | 36778 ft | 458 kts | 97° |
| 2026-05-06 11:17 | 12.96993 | 80.35139 | 36774 ft | 457 kts | 97° |
| 2026-05-06 11:18 | 12.96404 | 80.41645 | 36776 ft | 457 kts | 96° |
| 2026-05-06 11:18 | 12.95812 | 80.48142 | 36775 ft | 457 kts | 96° |
| 2026-05-06 11:19 | 12.95224 | 80.54579 | 36775 ft | 455 kts | 96° |
| 2026-05-06 11:19 | 12.94632 | 80.61060 | 36778 ft | 457 kts | 96° |
| 2026-05-06 11:20 | 12.94038 | 80.67545 | 36780 ft | 457 kts | 96° |
| 2026-05-06 11:20 | 12.93442 | 80.74019 | 36777 ft | 457 kts | 96° |
| 2026-05-06 11:21 | 12.92844 | 80.80506 | 36774 ft | 457 kts | 96° |
| 2026-05-06 11:21 | 12.92243 | 80.86998 | 36774 ft | 457 kts | 96° |
| 2026-05-06 11:22 | 12.91642 | 80.93485 | 36771 ft | 457 kts | 96° |
| 2026-05-06 11:22 | 12.91039 | 80.99973 | 36775 ft | 458 kts | 97° |
| 2026-05-06 11:23 | 12.90436 | 81.06438 | 36778 ft | 458 kts | 97° |
| 2026-05-06 11:23 | 12.89828 | 81.12953 | 36777 ft | 458 kts | 97° |
| 2026-05-06 11:24 | 12.89218 | 81.19455 | 36775 ft | 458 kts | 97° |
| 2026-05-06 11:24 | 12.88607 | 81.25954 | 36777 ft | 458 kts | 97° |
| 2026-05-06 11:25 | 12.87999 | 81.32415 | 36780 ft | 458 kts | 97° |
| 2026-05-06 11:25 | 12.87384 | 81.38924 | 36780 ft | 459 kts | 97° |
| 2026-05-06 11:26 | 12.86868 | 81.44374 | 36782 ft | 459 kts | 97° |
| 2026-05-06 11:26 | 12.86251 | 81.50873 | 36781 ft | 459 kts | 97° |
| 2026-05-06 11:27 | 12.85636 | 81.57334 | 36778 ft | 459 kts | 97° |
| 2026-05-06 11:27 | 12.85014 | 81.63845 | 36779 ft | 459 kts | 97° |
| 2026-05-06 11:28 | 12.84392 | 81.70346 | 36785 ft | 458 kts | 97° |
| 2026-05-06 11:28 | 12.83769 | 81.76845 | 36785 ft | 458 kts | 97° |
| 2026-05-06 11:29 | 12.83143 | 81.83348 | 36783 ft | 458 kts | 97° |
| 2026-05-06 11:29 | 12.82521 | 81.89803 | 36786 ft | 458 kts | 97° |
| 2026-05-06 11:30 | 12.81893 | 81.96304 | 36791 ft | 458 kts | 97° |
| 2026-05-06 11:30 | 12.81264 | 82.02786 | 36791 ft | 458 kts | 97° |
| 2026-05-06 11:31 | 12.80632 | 82.09292 | 36790 ft | 458 kts | 97° |
| 2026-05-06 11:31 | 12.79998 | 82.15795 | 36787 ft | 458 kts | 97° |
| 2026-05-06 11:32 | 12.79368 | 82.22253 | 36785 ft | 458 kts | 97° |
| 2026-05-06 11:32 | 12.78732 | 82.28741 | 36787 ft | 458 kts | 97° |
| 2026-05-06 11:33 | 12.78095 | 82.35234 | 36787 ft | 458 kts | 97° |
| 2026-05-06 11:33 | 12.77456 | 82.41729 | 36791 ft | 458 kts | 97° |
| 2026-05-06 11:34 | 12.76813 | 82.48239 | 36788 ft | 459 kts | 97° |
| 2026-05-06 11:34 | 12.76169 | 82.54748 | 36790 ft | 459 kts | 97° |
| 2026-05-06 11:35 | 12.75523 | 82.61258 | 36789 ft | 459 kts | 97° |
| 2026-05-06 11:35 | 12.74880 | 82.67728 | 36787 ft | 459 kts | 97° |
| 2026-05-06 11:36 | 12.74232 | 82.74234 | 36789 ft | 459 kts | 97° |
| 2026-05-06 11:36 | 12.73582 | 82.80739 | 36787 ft | 460 kts | 97° |
| 2026-05-06 11:37 | 12.72928 | 82.87269 | 36788 ft | 461 kts | 97° |
| 2026-05-06 11:37 | 12.72271 | 82.93802 | 36787 ft | 461 kts | 97° |
| 2026-05-06 11:38 | 12.71612 | 83.00348 | 36787 ft | 461 kts | 97° |
| 2026-05-06 11:38 | 12.70954 | 83.06872 | 36791 ft | 461 kts | 97° |
| 2026-05-06 11:39 | 12.70292 | 83.13412 | 36788 ft | 461 kts | 97° |
| 2026-05-06 11:39 | 12.69633 | 83.19910 | 36796 ft | 462 kts | 97° |
| 2026-05-06 11:40 | 12.68967 | 83.26468 | 36794 ft | 463 kts | 97° |
| 2026-05-06 11:40 | 12.68298 | 83.33033 | 36793 ft | 462 kts | 97° |
| 2026-05-06 11:41 | 12.67634 | 83.39537 | 36793 ft | 462 kts | 97° |
| 2026-05-06 11:41 | 12.66961 | 83.46121 | 36794 ft | 462 kts | 97° |
| 2026-05-06 11:42 | 12.66293 | 83.52626 | 36792 ft | 462 kts | 97° |
| 2026-05-06 11:42 | 12.65637 | 83.59171 | 36794 ft | 462 kts | 97° |
| 2026-05-06 11:43 | 12.64986 | 83.65728 | 36797 ft | 463 kts | 97° |
| 2026-05-06 11:43 | 12.64334 | 83.72277 | 36797 ft | 462 kts | 97° |
| 2026-05-06 11:44 | 12.63350 | 83.82116 | 36796 ft | 463 kts | 97° |
| 2026-05-06 11:44 | 12.62697 | 83.88636 | 36795 ft | 462 kts | 97° |
| 2026-05-06 11:45 | 12.62040 | 83.95179 | 36797 ft | 461 kts | 97° |
| 2026-05-06 11:45 | 12.61383 | 84.01697 | 36796 ft | 460 kts | 97° |
| 2026-05-06 11:46 | 12.60725 | 84.08218 | 36796 ft | 460 kts | 97° |
| 2026-05-06 11:46 | 12.60066 | 84.14735 | 36795 ft | 460 kts | 97° |
| 2026-05-06 11:47 | 12.59409 | 84.21211 | 36776 ft | 460 kts | 97° |
| 2026-05-06 11:47 | 12.58746 | 84.27726 | 36796 ft | 460 kts | 97° |
| 2026-05-06 11:48 | 12.58082 | 84.34239 | 36798 ft | 460 kts | 98° |
| 2026-05-06 11:48 | 12.57416 | 84.40763 | 36801 ft | 460 kts | 97° |
| 2026-05-06 11:49 | 12.56753 | 84.47228 | 36799 ft | 460 kts | 97° |
| 2026-05-06 11:49 | 12.56084 | 84.53743 | 36798 ft | 460 kts | 97° |
| 2026-05-06 11:50 | 12.55415 | 84.60247 | 36800 ft | 460 kts | 98° |
| 2026-05-06 11:50 | 12.54743 | 84.66763 | 36799 ft | 460 kts | 98° |
| 2026-05-06 11:51 | 12.54069 | 84.73274 | 36798 ft | 459 kts | 98° |
| 2026-05-06 11:51 | 12.53399 | 84.79737 | 36801 ft | 459 kts | 98° |
| 2026-05-06 11:52 | 12.52724 | 84.86232 | 36799 ft | 459 kts | 98° |
| 2026-05-06 11:52 | 12.52045 | 84.92747 | 36799 ft | 459 kts | 98° |
| 2026-05-06 11:53 | 12.51368 | 84.99241 | 36799 ft | 459 kts | 98° |
| 2026-05-06 11:53 | 12.50692 | 85.05696 | 36796 ft | 459 kts | 98° |
| 2026-05-06 11:54 | 12.50011 | 85.12184 | 36801 ft | 458 kts | 98° |
| 2026-05-06 11:54 | 12.49330 | 85.18669 | 36802 ft | 458 kts | 98° |
| 2026-05-06 11:55 | 12.48646 | 85.25155 | 36799 ft | 458 kts | 98° |
| 2026-05-06 11:55 | 12.47961 | 85.31643 | 36799 ft | 458 kts | 98° |
| 2026-05-06 11:56 | 12.47274 | 85.38128 | 36796 ft | 458 kts | 98° |
| 2026-05-06 11:56 | 12.46589 | 85.44582 | 36797 ft | 458 kts | 98° |
| 2026-05-06 11:57 | 12.45902 | 85.51046 | 36800 ft | 456 kts | 98° |
| 2026-05-06 11:57 | 12.45213 | 85.57509 | 36802 ft | 457 kts | 98° |
| 2026-05-06 11:58 | 12.44524 | 85.63959 | 36801 ft | 457 kts | 98° |
| 2026-05-06 11:58 | 12.43832 | 85.70423 | 36799 ft | 456 kts | 98° |
| 2026-05-06 11:59 | 12.43143 | 85.76840 | 36802 ft | 457 kts | 98° |
| 2026-05-06 11:59 | 12.42448 | 85.83298 | 36802 ft | 457 kts | 98° |
| 2026-05-06 12:00 | 12.41753 | 85.89743 | 36803 ft | 457 kts | 98° |
| 2026-05-06 12:00 | 12.41055 | 85.96208 | 36799 ft | 456 kts | 98° |
| 2026-05-06 12:01 | 12.40355 | 86.02666 | 36804 ft | 457 kts | 98° |
| 2026-05-06 12:01 | 12.39654 | 86.09124 | 36803 ft | 457 kts | 98° |
| 2026-05-06 12:02 | 12.38957 | 86.15538 | 36801 ft | 457 kts | 98° |
| 2026-05-06 12:02 | 12.38253 | 86.21992 | 36802 ft | 456 kts | 98° |
| 2026-05-06 12:03 | 12.37549 | 86.28437 | 36803 ft | 455 kts | 98° |
| 2026-05-06 12:03 | 12.36844 | 86.34871 | 36803 ft | 455 kts | 98° |
| 2026-05-06 12:04 | 12.36137 | 86.41316 | 36806 ft | 455 kts | 98° |
| 2026-05-06 12:04 | 12.35429 | 86.47754 | 36806 ft | 455 kts | 98° |
| 2026-05-06 12:05 | 12.34724 | 86.54150 | 36812 ft | 455 kts | 98° |
| 2026-05-06 12:05 | 12.34014 | 86.60574 | 36803 ft | 456 kts | 98° |
| 2026-05-06 12:06 | 12.33300 | 86.67022 | 36809 ft | 456 kts | 98° |
| 2026-05-06 12:06 | 12.32585 | 86.73470 | 36806 ft | 456 kts | 98° |
| 2026-05-06 12:07 | 12.31869 | 86.79912 | 36807 ft | 456 kts | 98° |
| 2026-05-06 12:07 | 12.31151 | 86.86351 | 36806 ft | 456 kts | 98° |
| 2026-05-06 12:08 | 12.30431 | 86.92798 | 36810 ft | 456 kts | 98° |
| 2026-05-06 12:08 | 12.29709 | 86.99248 | 36803 ft | 456 kts | 98° |
| 2026-05-06 12:09 | 12.28987 | 87.05686 | 36808 ft | 456 kts | 98° |
| 2026-05-06 12:09 | 12.28269 | 87.12074 | 36805 ft | 456 kts | 98° |
| 2026-05-06 12:10 | 12.27543 | 87.18524 | 36812 ft | 455 kts | 98° |
| 2026-05-06 12:10 | 12.26817 | 87.24958 | 36808 ft | 455 kts | 98° |
| 2026-05-06 12:11 | 12.26088 | 87.31399 | 36815 ft | 455 kts | 98° |
| 2026-05-06 12:11 | 12.25362 | 87.37804 | 36815 ft | 456 kts | 98° |
| 2026-05-06 12:12 | 12.24631 | 87.44236 | 36818 ft | 456 kts | 98° |
| 2026-05-06 12:12 | 12.23899 | 87.50672 | 36818 ft | 455 kts | 98° |
| 2026-05-06 12:13 | 12.23289 | 87.56025 | 36818 ft | 456 kts | 98° |
| 2026-05-06 12:13 | 12.22554 | 87.62452 | 36810 ft | 456 kts | 98° |
| 2026-05-06 12:14 | 12.21817 | 87.68889 | 36809 ft | 456 kts | 98° |
| 2026-05-06 12:14 | 12.21080 | 87.75314 | 36820 ft | 454 kts | 98° |
| 2026-05-06 12:15 | 12.20345 | 87.81709 | 36815 ft | 452 kts | 98° |
| 2026-05-06 12:15 | 12.19609 | 87.88093 | 36818 ft | 452 kts | 98° |
| 2026-05-06 12:16 | 12.18876 | 87.94445 | 36822 ft | 452 kts | 98° |
| 2026-05-06 12:16 | 12.18136 | 88.00837 | 36816 ft | 452 kts | 98° |
| 2026-05-06 12:17 | 12.17396 | 88.07221 | 36817 ft | 452 kts | 98° |
| 2026-05-06 12:17 | 12.16654 | 88.13609 | 36821 ft | 452 kts | 98° |
| 2026-05-06 12:18 | 12.15911 | 88.19997 | 36825 ft | 452 kts | 98° |
| 2026-05-06 12:18 | 12.15171 | 88.26345 | 36820 ft | 452 kts | 98° |
| 2026-05-06 12:19 | 12.14425 | 88.32737 | 36823 ft | 452 kts | 98° |
| 2026-05-06 12:19 | 12.13678 | 88.39119 | 36818 ft | 453 kts | 98° |
| 2026-05-06 12:20 | 12.12929 | 88.45510 | 36824 ft | 453 kts | 98° |
| 2026-05-06 12:20 | 12.12182 | 88.51864 | 36823 ft | 452 kts | 98° |
| 2026-05-06 12:21 | 12.11432 | 88.58241 | 36822 ft | 452 kts | 98° |
| 2026-05-06 12:21 | 12.10679 | 88.64619 | 36824 ft | 452 kts | 98° |
| 2026-05-06 12:22 | 12.10393 | 88.67043 | 36824 ft | 452 kts | 98° |
| 2026-05-06 12:22 | 12.09840 | 88.73151 | 36819 ft | 453 kts | 96° |
| 2026-05-06 12:23 | 12.09277 | 88.79554 | 36827 ft | 452 kts | 96° |
| 2026-05-06 12:23 | 12.08713 | 88.85918 | 36817 ft | 452 kts | 96° |
| 2026-05-06 12:24 | 12.08143 | 88.92335 | 36831 ft | 454 kts | 96° |
| 2026-05-06 12:24 | 12.07569 | 88.98772 | 36826 ft | 454 kts | 96° |
| 2026-05-06 12:25 | 12.06995 | 89.05203 | 36825 ft | 454 kts | 96° |
| 2026-05-06 12:25 | 12.06419 | 89.11629 | 36825 ft | 454 kts | 96° |
| 2026-05-06 12:26 | 12.05846 | 89.18012 | 36830 ft | 454 kts | 96° |
| 2026-05-06 12:26 | 12.05268 | 89.24434 | 36825 ft | 454 kts | 96° |
| 2026-05-06 12:27 | 12.04687 | 89.30869 | 36834 ft | 455 kts | 96° |
| 2026-05-06 12:27 | 12.04105 | 89.37301 | 36828 ft | 455 kts | 96° |
| 2026-05-06 12:28 | 12.03521 | 89.43730 | 36822 ft | 453 kts | 96° |
| 2026-05-06 12:28 | 12.02938 | 89.50138 | 36829 ft | 453 kts | 96° |
| 2026-05-06 12:29 | 12.02358 | 89.56504 | 36829 ft | 453 kts | 96° |
| 2026-05-06 12:29 | 12.01772 | 89.62917 | 36830 ft | 453 kts | 96° |
| 2026-05-06 12:30 | 12.01185 | 89.69316 | 36831 ft | 453 kts | 96° |
| 2026-05-06 12:30 | 12.00596 | 89.75723 | 36833 ft | 453 kts | 96° |
| 2026-05-06 12:31 | 12.00005 | 89.82140 | 36833 ft | 453 kts | 96° |
| 2026-05-06 12:31 | 11.99413 | 89.88553 | 36831 ft | 453 kts | 96° |
| 2026-05-06 12:32 | 11.98820 | 89.94957 | 36830 ft | 453 kts | 96° |
| 2026-05-06 12:32 | 11.98227 | 90.01344 | 36829 ft | 453 kts | 96° |
| 2026-05-06 12:33 | 11.97630 | 90.07764 | 36835 ft | 454 kts | 96° |
| 2026-05-06 12:33 | 11.97030 | 90.14189 | 36835 ft | 454 kts | 96° |
| 2026-05-06 12:34 | 11.96429 | 90.20613 | 36836 ft | 454 kts | 96° |
| 2026-05-06 12:34 | 11.95832 | 90.26990 | 36835 ft | 454 kts | 96° |
| 2026-05-06 12:35 | 11.95228 | 90.33412 | 36832 ft | 454 kts | 96° |
| 2026-05-06 12:35 | 11.94623 | 90.39834 | 36833 ft | 454 kts | 96° |
| 2026-05-06 12:36 | 11.94016 | 90.46262 | 36838 ft | 455 kts | 96° |
| 2026-05-06 12:36 | 11.93410 | 90.52658 | 36784 ft | 456 kts | 96° |
| 2026-05-06 12:37 | 11.93105 | 90.55876 | 36575 ft | 454 kts | 96° |
| 2026-05-06 12:37 | 11.92800 | 90.59089 | 36326 ft | 455 kts | 97° |
| 2026-05-06 12:37 | 11.92494 | 90.62303 | 36090 ft | 455 kts | 97° |
| 2026-05-06 12:37 | 11.92188 | 90.65524 | 35858 ft | 456 kts | 96° |
| 2026-05-06 12:38 | 11.91882 | 90.68739 | 35624 ft | 457 kts | 96° |
| 2026-05-06 12:38 | 11.91573 | 90.71977 | 35173 ft | 456 kts | 96° |
| 2026-05-06 12:38 | 11.91265 | 90.75202 | 34469 ft | 456 kts | 96° |
| 2026-05-06 12:38 | 11.90960 | 90.78391 | 33821 ft | 457 kts | 97° |
| 2026-05-06 12:39 | 11.90650 | 90.81621 | 33202 ft | 455 kts | 96° |
| 2026-05-06 12:39 | 11.90343 | 90.84820 | 32699 ft | 449 kts | 96° |
| 2026-05-06 12:39 | 11.90036 | 90.88021 | 32211 ft | 454 kts | 96° |
| 2026-05-06 12:39 | 11.89727 | 90.91237 | 31682 ft | 456 kts | 96° |
| 2026-05-06 12:40 | 11.89417 | 90.94457 | 31140 ft | 455 kts | 97° |
| 2026-05-06 12:40 | 11.89109 | 90.97663 | 30630 ft | 452 kts | 97° |
| 2026-05-06 12:40 | 11.88801 | 91.00848 | 30115 ft | 449 kts | 97° |
| 2026-05-06 12:40 | 11.88499 | 91.03975 | 29565 ft | 446 kts | 97° |
| 2026-05-06 12:41 | 11.88195 | 91.07120 | 29006 ft | 442 kts | 96° |
| 2026-05-06 12:41 | 11.87893 | 91.10245 | 28523 ft | 439 kts | 96° |
| 2026-05-06 12:41 | 11.87594 | 91.13331 | 28057 ft | 435 kts | 96° |
| 2026-05-06 12:41 | 11.87298 | 91.16396 | 27593 ft | 432 kts | 96° |
| 2026-05-06 12:42 | 11.87002 | 91.19440 | 27134 ft | 428 kts | 96° |
| 2026-05-06 12:42 | 11.86713 | 91.22414 | 26686 ft | 424 kts | 96° |
| 2026-05-06 12:42 | 11.86422 | 91.25408 | 26239 ft | 421 kts | 96° |
| 2026-05-06 12:42 | 11.85959 | 91.28342 | 25734 ft | 417 kts | 108° |
| 2026-05-06 12:43 | 11.84661 | 91.30950 | 25267 ft | 412 kts | 128° |
| 2026-05-06 12:43 | 11.82673 | 91.33021 | 24915 ft | 406 kts | 137° |
| 2026-05-06 12:43 | 11.80643 | 91.35030 | 24515 ft | 407 kts | 135° |
| 2026-05-06 12:43 | 11.78626 | 91.37046 | 24099 ft | 405 kts | 135° |
| 2026-05-06 12:44 | 11.76620 | 91.39043 | 23684 ft | 401 kts | 135° |
| 2026-05-06 12:44 | 11.74623 | 91.41029 | 23236 ft | 399 kts | 135° |
| 2026-05-06 12:44 | 11.72643 | 91.42995 | 22772 ft | 396 kts | 135° |
| 2026-05-06 12:44 | 11.70676 | 91.44948 | 22368 ft | 393 kts | 135° |
| 2026-05-06 12:45 | 11.68742 | 91.46868 | 21966 ft | 391 kts | 135° |
| 2026-05-06 12:45 | 11.66797 | 91.48798 | 21567 ft | 388 kts | 135° |
| 2026-05-06 12:45 | 11.62949 | 91.52615 | 20780 ft | 383 kts | 135° |
| 2026-05-06 12:46 | 11.61041 | 91.54509 | 20392 ft | 381 kts | 135° |
| 2026-05-06 12:46 | 11.59149 | 91.56384 | 20010 ft | 379 kts | 135° |
| 2026-05-06 12:46 | 11.57265 | 91.58252 | 19628 ft | 376 kts | 135° |
| 2026-05-06 12:46 | 11.55390 | 91.60111 | 19246 ft | 374 kts | 135° |
| 2026-05-06 12:47 | 11.53531 | 91.61953 | 18863 ft | 372 kts | 135° |
| 2026-05-06 12:47 | 11.51704 | 91.63763 | 18487 ft | 369 kts | 135° |
| 2026-05-06 12:47 | 11.49864 | 91.65586 | 18121 ft | 367 kts | 135° |
| 2026-05-06 12:47 | 11.48039 | 91.67394 | 17701 ft | 365 kts | 135° |
| 2026-05-06 12:48 | 11.46225 | 91.69191 | 17309 ft | 362 kts | 135° |
| 2026-05-06 12:48 | 11.44419 | 91.70978 | 16939 ft | 360 kts | 135° |
| 2026-05-06 12:48 | 11.42629 | 91.72751 | 16566 ft | 358 kts | 135° |
| 2026-05-06 12:48 | 11.40848 | 91.74514 | 16196 ft | 356 kts | 135° |
| 2026-05-06 12:49 | 11.39076 | 91.76267 | 15834 ft | 354 kts | 135° |
| 2026-05-06 12:49 | 11.37351 | 91.78041 | 15424 ft | 352 kts | 128° |
| 2026-05-06 12:49 | 11.36207 | 91.80225 | 15022 ft | 349 kts | 105° |
| 2026-05-06 12:49 | 11.35964 | 91.82625 | 14700 ft | 346 kts | 86° |
| 2026-05-06 12:50 | 11.36263 | 91.85046 | 14357 ft | 344 kts | 84° |
| 2026-05-06 12:50 | 11.36553 | 91.87467 | 14012 ft | 343 kts | 84° |
| 2026-05-06 12:50 | 11.36846 | 91.89873 | 13662 ft | 341 kts | 84° |
| 2026-05-06 12:50 | 11.37142 | 91.92267 | 13254 ft | 339 kts | 83° |
| 2026-05-06 12:51 | 11.37434 | 91.94641 | 12892 ft | 337 kts | 83° |
| 2026-05-06 12:51 | 11.37726 | 91.97003 | 12539 ft | 335 kts | 83° |
| 2026-05-06 12:51 | 11.38017 | 91.99352 | 12183 ft | 333 kts | 83° |
| 2026-05-06 12:51 | 11.38305 | 92.01685 | 11846 ft | 331 kts | 83° |
| 2026-05-06 12:52 | 11.38592 | 92.04009 | 11496 ft | 330 kts | 84° |
| 2026-05-06 12:52 | 11.38879 | 92.06331 | 11153 ft | 328 kts | 84° |
| 2026-05-06 12:52 | 11.39162 | 92.08632 | 10815 ft | 327 kts | 84° |
| 2026-05-06 12:52 | 11.39445 | 92.10924 | 10461 ft | 325 kts | 84° |
| 2026-05-06 12:53 | 11.39726 | 92.13206 | 10130 ft | 324 kts | 84° |
| 2026-05-06 12:53 | 11.40005 | 92.15473 | 9885 ft | 321 kts | 84° |
| 2026-05-06 12:53 | 11.40284 | 92.17739 | 9665 ft | 322 kts | 84° |
| 2026-05-06 12:53 | 11.40559 | 92.19973 | 9305 ft | 322 kts | 84° |
| 2026-05-06 12:54 | 11.40836 | 92.22233 | 8943 ft | 320 kts | 84° |
| 2026-05-06 12:54 | 11.41112 | 92.24476 | 8595 ft | 318 kts | 84° |
| 2026-05-06 12:54 | 11.41385 | 92.26704 | 8260 ft | 316 kts | 84° |
| 2026-05-06 12:54 | 11.41657 | 92.28917 | 7925 ft | 314 kts | 84° |
| 2026-05-06 12:55 | 11.41927 | 92.31122 | 7585 ft | 313 kts | 84° |
| 2026-05-06 12:55 | 11.42196 | 92.33317 | 7252 ft | 311 kts | 84° |
| 2026-05-06 12:55 | 11.42463 | 92.35499 | 6923 ft | 310 kts | 84° |
| 2026-05-06 12:55 | 11.42729 | 92.37673 | 6593 ft | 308 kts | 84° |
| 2026-05-06 12:56 | 11.42990 | 92.39810 | 6246 ft | 298 kts | 84° |
| 2026-05-06 12:56 | 11.43241 | 92.41863 | 5910 ft | 286 kts | 84° |
| 2026-05-06 12:56 | 11.43482 | 92.43835 | 5603 ft | 274 kts | 84° |
| 2026-05-06 12:56 | 11.43713 | 92.45722 | 5310 ft | 263 kts | 84° |
| 2026-05-06 12:57 | 11.43931 | 92.47509 | 5133 ft | 242 kts | 84° |
| 2026-05-06 12:57 | 11.44129 | 92.49135 | 4997 ft | 221 kts | 84° |
| 2026-05-06 12:57 | 11.44313 | 92.50648 | 4787 ft | 211 kts | 84° |
| 2026-05-06 12:57 | 11.44491 | 92.52110 | 4562 ft | 210 kts | 84° |
| 2026-05-06 12:58 | 11.44670 | 92.53583 | 4290 ft | 209 kts | 84° |
| 2026-05-06 12:58 | 11.44850 | 92.55050 | 4012 ft | 208 kts | 84° |
| 2026-05-06 12:58 | 11.45027 | 92.56511 | 3731 ft | 208 kts | 84° |
| 2026-05-06 12:58 | 11.45257 | 92.57968 | 3453 ft | 208 kts | 73° |
| 2026-05-06 12:59 | 11.46022 | 92.59207 | 3169 ft | 209 kts | 50° |
| 2026-05-06 12:59 | 11.47119 | 92.60194 | 3037 ft | 212 kts | 40° |
| 2026-05-06 12:59 | 11.48308 | 92.61094 | 3000 ft | 212 kts | 39° |
| 2026-05-06 12:59 | 11.49070 | 92.61659 | 2981 ft | 197 kts | 39° |
| 2026-05-06 13:00 | 11.50155 | 92.62470 | 2994 ft | 192 kts | 39° |
| 2026-05-06 13:00 | 11.51224 | 92.63271 | 2750 ft | 189 kts | 39° |
| 2026-05-06 13:00 | 11.52285 | 92.64068 | 2533 ft | 189 kts | 39° |
| 2026-05-06 13:00 | 11.53679 | 92.65115 | 2221 ft | 186 kts | 39° |
| 2026-05-06 13:01 | 11.54720 | 92.65898 | 1996 ft | 185 kts | 39° |
| 2026-05-06 13:01 | 11.55410 | 92.66415 | 1837 ft | 185 kts | 39° |
| 2026-05-06 13:01 | 11.56392 | 92.67149 | 1616 ft | 164 kts | 39° |
| 2026-05-06 13:01 | 11.57262 | 92.67803 | 1436 ft | 150 kts | 39° |
| 2026-05-06 13:02 | 11.58094 | 92.68430 | 1227 ft | 147 kts | 39° |
| 2026-05-06 13:02 | 11.58905 | 92.69054 | 1075 ft | 146 kts | 40° |
| 2026-05-06 13:02 | 11.59704 | 92.69687 | 921 ft | 146 kts | 39° |
| 2026-05-06 13:02 | 11.60528 | 92.70274 | 714 ft | 143 kts | 39° |
| 2026-05-06 13:03 | 11.61324 | 92.70879 | 615 ft | 143 kts | 38° |
| 2026-05-06 13:03 | 11.62123 | 92.71476 | 365 ft | 144 kts | 38° |
| 2026-05-06 13:03 | 11.62941 | 92.72078 | 148 ft | 146 kts | 37° |
| 2026-05-06 13:03 | 11.63712 | 92.72661 | 46 ft | 121 kts | 36° |
| 2026-05-06 13:04 | 11.64211 | 92.73031 | 28 ft | 61 kts | 36° |
| 2026-05-06 13:04 | 11.64451 | 92.73210 | 28 ft | 29 kts | 36° |
| 2026-05-06 13:04 | 11.64611 | 92.73331 | 34 ft | 28 kts | 36° |
| 2026-05-06 13:04 | 11.64700 | 92.73307 | 36 ft | 15 kts | 302° |
| 2026-05-06 13:05 | 11.64774 | 92.73221 | 36 ft | 14 kts | 348° |
| 2026-05-06 13:05 | 11.64872 | 92.73267 | 40 ft | 18 kts | 36° |
| 2026-05-06 13:05 | 11.64984 | 92.73347 | 45 ft | 22 kts | 40° |
| 2026-05-06 13:05 | 11.64999 | 92.73440 | 49 ft | 8 kts | 77° |
| 2026-05-06 13:06 | 11.65044 | 92.73477 | 51 ft | 10 kts | 27° |
| 2026-05-06 13:06 | 11.65080 | 92.73450 | 51 ft | 8 kts | 306° |
| 2026-05-06 13:06 | 11.65098 | 92.73426 | 50 ft | 3 kts | 307° |
| 2026-05-06 13:06 | 11.65101 | 92.73422 | 47 ft | 0 kts | 308° |